Time;durP1;ratioP1;P1;durP2;ratioP2;P2;SDS_P1;SDS_P2;PMS_P1;PMS_P2;Temp;Humidity;BMP_temperature;BMP_pressure;BME280_temperature;BME280_humidity;BME280_pressure;Samples;Min_cycle;Max_cycle;Signal;HPM_P1;HPM_P2
2023/08/06 00:01:40;;;;;;;6.22;5.72;;;;;;;;;;10153544;28;20054;-72
2023/08/06 00:06:36;;;;;;;6.40;5.80;;;;;;;;;;10180317;28;20054;-72
2023/08/06 00:11:33;;;;;;;6.70;6.10;;;;;;;;;;10166129;28;20054;-72
2023/08/06 00:16:29;;;;;;;7.30;6.60;;;;;;;;;;10176754;28;20058;-73
2023/08/06 00:21:25;;;;;;;7.22;6.63;;;;;;;;;;10165829;28;20108;-73
2023/08/06 00:26:21;;;;;;;7.55;6.95;;;;;;;;;;10174027;28;20086;-73
2023/08/06 00:31:18;;;;;;;9.75;7.55;;;;;;;;;;10165348;28;20061;-72
2023/08/06 00:36:14;;;;;;;6.88;6.38;;;;;;;;;;10165467;28;20137;-72
2023/08/06 00:41:10;;;;;;;7.70;6.97;;;;;;;;;;10148209;28;20213;-72
2023/08/06 00:46:07;;;;;;;7.30;6.70;;;;;;;;;;10214747;28;20057;-72
2023/08/06 00:51:03;;;;;;;7.07;6.38;;;;;;;;;;10231823;28;20068;-72
2023/08/06 00:56:00;;;;;;;8.30;7.50;;;;;;;;;;10212749;28;20100;-72
2023/08/06 01:01:32;;;;;;;;;;;;;;;;;;;;;
2023/08/06 01:07:00;;;;;;;7.68;7.07;;;;;;;;;;10219112;28;20046;-72
2023/08/06 01:12:15;;;;;;;8.30;7.60;;;;;;;;;;10164240;28;20351;-72
2023/08/06 01:17:12;;;;;;;7.80;7.13;;;;;;;;;;10215005;28;20485;-72
2023/08/06 01:22:08;;;;;;;8.50;7.80;;;;;;;;;;10157726;28;20050;-72
2023/08/06 01:27:11;;;;;;;9.20;8.27;;;;;;;;;;10178837;28;20089;-72
2023/08/06 01:32:10;;;;;;;9.10;8.30;;;;;;;;;;10223528;23;20038;-71
2023/08/06 01:37:07;;;;;;;9.38;8.43;;;;;;;;;;10204332;28;20049;-72
2023/08/06 01:42:03;;;;;;;9.45;8.60;;;;;;;;;;10197349;28;20057;-72
2023/08/06 01:47:00;;;;;;;8.50;7.80;;;;;;;;;;10229010;28;20072;-72
2023/08/06 01:51:56;;;;;;;8.63;7.88;;;;;;;;;;10234069;28;20050;-72
2023/08/06 01:56:52;;;;;;;9.95;8.82;;;;;;;;;;10227788;28;20069;-72
2023/08/06 02:01:48;;;;;;;8.77;8.07;;;;;;;;;;10226218;28;20122;-72
2023/08/06 02:06:45;;;;;;;9.93;8.93;;;;;;;;;;10226166;28;20076;-72
2023/08/06 02:11:41;;;;;;;10.00;9.10;;;;;;;;;;10216002;28;20050;-72
2023/08/06 02:16:37;;;;;;;9.82;8.93;;;;;;;;;;10225602;28;20504;-72
2023/08/06 02:21:33;;;;;;;8.73;7.85;;;;;;;;;;10206450;28;20504;-72
2023/08/06 02:26:30;;;;;;;9.45;8.55;;;;;;;;;;10223623;28;20054;-72
2023/08/06 02:31:26;;;;;;;9.13;8.23;;;;;;;;;;10201050;28;20057;-72
2023/08/06 02:36:23;;;;;;;9.80;8.90;;;;;;;;;;10222015;28;20115;-72
2023/08/06 02:41:19;;;;;;;9.52;8.57;;;;;;;;;;10201716;23;20117;-72
2023/08/06 02:46:15;;;;;;;9.80;9.00;;;;;;;;;;10190290;28;20051;-72
2023/08/06 02:51:11;;;;;;;9.77;8.93;;;;;;;;;;10155514;28;20075;-72
2023/08/06 02:56:08;;;;;;;10.55;9.48;;;;;;;;;;10170297;28;20042;-72
2023/08/06 03:01:05;;;;;;;9.45;8.52;;;;;;;;;;10153258;28;20074;-73
2023/08/06 03:06:02;;;;;;;9.23;8.43;;;;;;;;;;10202752;28;20056;-72
2023/08/06 03:10:58;;;;;;;10.50;8.38;;;;;;;;;;10191768;28;20050;-72
2023/08/06 03:15:55;;;;;;;9.32;8.48;;;;;;;;;;10200232;28;20065;-72
2023/08/06 03:20:51;;;;;;;10.55;9.43;;;;;;;;;;10272000;22;20519;-72
2023/08/06 03:25:48;;;;;;;10.23;9.15;;;;;;;;;;10222197;28;20125;-72
2023/08/06 03:30:45;;;;;;;9.85;8.82;;;;;;;;;;10194105;28;20582;-72
2023/08/06 03:35:41;;;;;;;12.35;10.10;;;;;;;;;;10236100;28;20144;-72
2023/08/06 03:40:37;;;;;;;10.05;9.15;;;;;;;;;;10197889;28;20084;-72
2023/08/06 03:45:34;;;;;;;10.25;8.57;;;;;;;;;;10220941;28;20499;-72
2023/08/06 03:50:30;;;;;;;9.77;8.88;;;;;;;;;;10233119;28;20599;-73
2023/08/06 03:55:26;;;;;;;10.52;8.35;;;;;;;;;;10249905;28;20048;-73
2023/08/06 04:00:23;;;;;;;10.75;9.85;;;;;;;;;;10274251;28;20064;-72
2023/08/06 04:05:19;;;;;;;9.93;9.05;;;;;;;;;;10233554;28;20067;-72
2023/08/06 04:10:15;;;;;;;12.07;9.20;;;;;;;;;;10268428;28;20045;-72
2023/08/06 04:15:12;;;;;;;10.68;9.65;;;;;;;;;;10227481;28;20491;-72
2023/08/06 04:20:08;;;;;;;10.13;9.23;;;;;;;;;;10260595;28;20054;-72
2023/08/06 04:25:05;;;;;;;9.68;8.68;;;;;;;;;;10225798;28;20549;-72
2023/08/06 04:30:01;;;;;;;10.45;9.55;;;;;;;;;;10252388;28;20108;-72
2023/08/06 04:34:58;;;;;;;10.88;9.88;;;;;;;;;;10224313;28;20107;-72
2023/08/06 04:39:54;;;;;;;9.60;8.80;;;;;;;;;;10258352;23;20531;-72
2023/08/06 04:44:50;;;;;;;11.15;10.15;;;;;;;;;;10212373;28;20057;-72
2023/08/06 04:49:47;;;;;;;11.57;10.10;;;;;;;;;;10191555;28;20072;-72
2023/08/06 04:54:43;;;;;;;17.17;11.13;;;;;;;;;;10211751;28;20060;-72
2023/08/06 04:59:40;;;;;;;9.80;8.90;;;;;;;;;;10198992;28;20054;-72
2023/08/06 05:04:36;;;;;;;11.55;10.40;;;;;;;;;;10212047;28;20079;-73
2023/08/06 05:09:32;;;;;;;11.07;10.07;;;;;;;;;;10244033;22;20670;-72
2023/08/06 05:14:29;;;;;;;12.07;10.07;;;;;;;;;;10195759;28;20095;-72
2023/08/06 05:19:25;;;;;;;10.38;9.35;;;;;;;;;;10238451;28;20054;-72
2023/08/06 05:24:21;;;;;;;11.13;9.98;;;;;;;;;;10209317;28;20049;-70
2023/08/06 05:29:18;;;;;;;11.57;10.38;;;;;;;;;;10201955;28;20090;-72
2023/08/06 05:34:14;;;;;;;12.38;11.15;;;;;;;;;;10177485;28;20515;-72
2023/08/06 05:39:11;;;;;;;13.95;11.18;;;;;;;;;;10193072;28;20050;-72
2023/08/06 05:44:07;;;;;;;11.10;10.10;;;;;;;;;;10174148;28;20108;-72
2023/08/06 05:49:04;;;;;;;26.10;12.20;;;;;;;;;;10155878;28;20401;-72
2023/08/06 05:54:01;;;;;;;10.68;9.68;;;;;;;;;;10159736;28;20043;-72
2023/08/06 05:58:57;;;;;;;15.27;11.95;;;;;;;;;;10156750;28;20097;-72
2023/08/06 06:03:56;;;;;;;12.70;11.00;;;;;;;;;;10170524;28;20137;-72
2023/08/06 06:08:52;;;;;;;14.40;11.10;;;;;;;;;;10237379;22;20042;-72
2023/08/06 06:13:52;;;;;;;13.25;10.45;;;;;;;;;;10200934;28;20057;-72
2023/08/06 06:18:48;;;;;;;12.50;11.30;;;;;;;;;;10223042;28;20050;-72
2023/08/06 06:23:44;;;;;;;11.75;9.90;;;;;;;;;;10201974;28;20088;-72
2023/08/06 06:28:41;;;;;;;12.73;10.80;;;;;;;;;;10185102;28;20090;-72
2023/08/06 06:33:37;;;;;;;12.23;10.93;;;;;;;;;;10165050;28;20053;-72
2023/08/06 06:38:34;;;;;;;12.85;11.02;;;;;;;;;;10157326;28;20125;-72
2023/08/06 06:43:30;;;;;;;12.55;10.25;;;;;;;;;;10163054;28;20049;-72
2023/08/06 06:48:27;;;;;;;14.52;10.25;;;;;;;;;;10194602;28;20046;-73
2023/08/06 06:53:27;;;;;;;11.93;10.30;;;;;;;;;;10191237;28;20504;-72
2023/08/06 06:58:23;;;;;;;12.23;10.85;;;;;;;;;;10217266;28;20127;-72
2023/08/06 07:03:20;;;;;;;10.75;9.65;;;;;;;;;;10176347;28;20170;-73
2023/08/06 07:13:28;;;;;;;13.88;11.25;;;;;;;;;;9980234;26;20045;-73
2023/08/06 07:18:24;;;;;;;12.20;10.50;;;;;;;;;;10182605;28;20082;-73
2023/08/06 07:23:24;;;;;;;11.32;10.23;;;;;;;;;;10119413;28;20087;-73
2023/08/06 07:28:21;;;;;;;11.13;9.93;;;;;;;;;;10140505;28;20062;-72
2023/08/06 07:33:17;;;;;;;13.48;10.05;;;;;;;;;;10118074;28;20051;-72
2023/08/06 07:38:13;;;;;;;12.70;11.15;;;;;;;;;;10164365;28;20513;-73
2023/08/06 07:43:09;;;;;;;10.95;9.85;;;;;;;;;;10150952;28;20042;-74
2023/08/06 07:48:09;;;;;;;11.95;9.82;;;;;;;;;;10192662;28;20423;-73
2023/08/06 07:53:05;;;;;;;12.07;10.93;;;;;;;;;;10172682;28;20054;-73
2023/08/06 07:58:01;;;;;;;12.23;10.40;;;;;;;;;;10192947;28;20050;-74
2023/08/06 08:02:58;;;;;;;11.18;9.25;;;;;;;;;;10133219;28;20535;-73
2023/08/06 08:07:54;;;;;;;14.82;10.98;;;;;;;;;;10187828;28;20045;-73
2023/08/06 08:12:50;;;;;;;12.63;10.70;;;;;;;;;;10113327;28;20492;-73
2023/08/06 08:17:47;;;;;;;11.10;10.00;;;;;;;;;;10157231;28;20051;-73
2023/08/06 08:22:44;;;;;;;11.35;9.80;;;;;;;;;;10113447;28;20059;-72
2023/08/06 08:27:40;;;;;;;11.50;9.77;;;;;;;;;;10174640;28;20050;-73
2023/08/06 08:32:36;;;;;;;13.75;10.75;;;;;;;;;;10160352;28;20108;-72
2023/08/06 08:37:38;;;;;;;13.70;11.13;;;;;;;;;;10133450;28;20489;-72
2023/08/06 08:42:35;;;;;;;10.32;9.30;;;;;;;;;;10105113;28;20035;-72
2023/08/06 08:47:31;;;;;;;12.65;11.32;;;;;;;;;;10196212;28;20082;-72
2023/08/06 08:52:36;;;;;;;12.95;10.25;;;;;;;;;;10163517;28;20054;-72
2023/08/06 08:57:32;;;;;;;13.95;10.95;;;;;;;;;;10192009;28;20049;-72
2023/08/06 09:02:30;;;;;;;10.90;9.82;;;;;;;;;;10157034;28;20094;-72
2023/08/06 09:07:27;;;;;;;11.02;9.95;;;;;;;;;;10180059;28;20073;-72
2023/08/06 09:12:25;;;;;;;11.32;10.18;;;;;;;;;;10330697;22;20045;-72
2023/08/06 09:17:21;;;;;;;11.38;10.05;;;;;;;;;;10197095;28;20061;-72
2023/08/06 09:22:40;;;;;;;11.70;10.55;;;;;;;;;;10225969;23;20104;-72
2023/08/06 09:33:45;;;;;;;13.75;10.25;;;;;;;;;;9176713;26;20058;-72
2023/08/06 09:38:41;;;;;;;11.27;10.18;;;;;;;;;;10210989;28;20046;-72
2023/08/06 09:43:43;;;;;;;15.00;10.45;;;;;;;;;;10213876;28;20120;-72
2023/08/06 09:48:41;;;;;;;14.18;11.13;;;;;;;;;;10237771;28;20073;-73
2023/08/06 09:53:38;;;;;;;11.35;10.18;;;;;;;;;;10202682;28;20049;-72
2023/08/06 09:58:37;;;;;;;12.13;10.80;;;;;;;;;;10236925;28;20042;-72
2023/08/06 10:03:34;;;;;;;13.00;11.60;;;;;;;;;;10200689;28;20415;-73
2023/08/06 10:08:30;;;;;;;13.10;11.80;;;;;;;;;;10236194;28;20148;-73
2023/08/06 10:13:26;;;;;;;13.77;12.32;;;;;;;;;;10175600;28;20134;-73
2023/08/06 10:18:23;;;;;;;11.73;10.52;;;;;;;;;;10220753;28;20061;-73
2023/08/06 10:23:20;;;;;;;16.42;11.98;;;;;;;;;;10161154;28;20682;-73
2023/08/06 10:28:18;;;;;;;14.60;11.52;;;;;;;;;;10195515;28;20050;-72
2023/08/06 10:33:16;;;;;;;14.10;12.60;;;;;;;;;;10158823;28;20121;-72
2023/08/06 10:38:17;;;;;;;13.43;12.13;;;;;;;;;;10163319;28;20193;-72
2023/08/06 10:43:33;;;;;;;12.50;11.30;;;;;;;;;;10158362;28;20513;-72
2023/08/06 10:48:37;;;;;;;12.48;11.27;;;;;;;;;;10154768;28;20075;-72
2023/08/06 10:53:33;;;;;;;13.73;12.48;;;;;;;;;;10163934;28;20045;-73
2023/08/06 10:58:33;;;;;;;13.60;12.20;;;;;;;;;;10234683;28;20057;-73
2023/08/06 11:03:30;;;;;;;16.20;12.90;;;;;;;;;;10189130;28;20057;-73
2023/08/06 11:08:27;;;;;;;12.93;11.55;;;;;;;;;;10234149;28;20064;-73
2023/08/06 11:13:25;;;;;;;11.88;10.70;;;;;;;;;;10163893;28;20136;-72
2023/08/06 11:18:22;;;;;;;11.27;10.20;;;;;;;;;;10187585;28;20150;-73
2023/08/06 11:23:18;;;;;;;11.52;10.43;;;;;;;;;;10158766;28;20077;-73
2023/08/06 11:28:14;;;;;;;14.43;12.93;;;;;;;;;;10233405;28;20111;-73
2023/08/06 11:33:10;;;;;;;12.00;10.90;;;;;;;;;;10155870;28;20113;-73
2023/08/06 11:38:07;;;;;;;12.90;11.38;;;;;;;;;;10210287;28;20046;-73
2023/08/06 11:43:05;;;;;;;12.90;11.70;;;;;;;;;;10153548;28;20070;-72
2023/08/06 11:48:01;;;;;;;12.57;11.40;;;;;;;;;;10209185;28;20051;-73
2023/08/06 11:52:58;;;;;;;12.52;11.32;;;;;;;;;;10153166;28;20058;-73
2023/08/06 11:57:56;;;;;;;11.93;10.73;;;;;;;;;;10188375;28;20570;-73
2023/08/06 12:02:53;;;;;;;12.63;11.45;;;;;;;;;;10151938;28;20049;-73
2023/08/06 12:07:52;;;;;;;11.88;10.77;;;;;;;;;;10171219;28;20089;-73
2023/08/06 12:12:48;;;;;;;11.27;10.15;;;;;;;;;;10153356;28;20050;-73
2023/08/06 12:17:44;;;;;;;12.05;10.77;;;;;;;;;;10228861;28;20049;-73
2023/08/06 12:22:41;;;;;;;11.07;9.63;;;;;;;;;;10222843;28;20093;-73
2023/08/06 12:27:38;;;;;;;11.43;10.10;;;;;;;;;;10226612;28;20042;-73
2023/08/06 12:32:34;;;;;;;11.02;9.70;;;;;;;;;;10224061;28;20571;-74
2023/08/06 12:37:30;;;;;;;11.55;9.80;;;;;;;;;;10211151;28;20160;-73
2023/08/06 12:42:27;;;;;;;13.07;9.75;;;;;;;;;;10217166;28;20057;-73
2023/08/06 12:47:23;;;;;;;11.68;9.70;;;;;;;;;;10210455;28;20089;-73
2023/08/06 12:52:20;;;;;;;9.30;8.40;;;;;;;;;;10181508;28;20051;-73
2023/08/06 12:57:17;;;;;;;10.82;9.65;;;;;;;;;;10220629;28;20127;-73
2023/08/06 13:02:13;;;;;;;11.63;9.77;;;;;;;;;;10156954;28;20062;-73
2023/08/06 13:07:10;;;;;;;12.85;10.00;;;;;;;;;;10189273;28;20141;-73
2023/08/06 13:12:06;;;;;;;12.75;10.70;;;;;;;;;;10153169;28;20384;-73
2023/08/06 13:17:06;;;;;;;11.40;10.20;;;;;;;;;;10170466;28;20062;-73
2023/08/06 13:22:05;;;;;;;12.32;10.38;;;;;;;;;;10159200;28;20059;-73
2023/08/06 13:27:01;;;;;;;11.00;9.40;;;;;;;;;;10167622;28;20050;-73
2023/08/06 13:31:57;;;;;;;10.75;8.18;;;;;;;;;;10158650;28;20488;-73
2023/08/06 13:36:54;;;;;;;8.38;7.35;;;;;;;;;;10220639;28;20042;-74
2023/08/06 13:41:51;;;;;;;10.38;7.95;;;;;;;;;;10229649;28;20050;-73
2023/08/06 13:46:47;;;;;;;9.52;8.52;;;;;;;;;;10219095;28;20045;-73
2023/08/06 13:51:43;;;;;;;8.30;7.20;;;;;;;;;;10229798;28;20123;-73
2023/08/06 13:56:40;;;;;;;10.90;7.78;;;;;;;;;;10216680;28;20053;-73
2023/08/06 14:07:01;;;;;;;8.65;7.70;;;;;;;;;;10266857;28;20510;-73
2023/08/06 14:12:18;;;;;;;7.20;6.07;;;;;;;;;;10248476;28;20100;-73
2023/08/06 14:17:31;;;;;;;6.70;6.10;;;;;;;;;;10269590;28;20056;-73
2023/08/06 14:22:27;;;;;;;6.93;6.22;;;;;;;;;;10252736;28;20100;-73
2023/08/06 14:27:24;;;;;;;6.53;6.03;;;;;;;;;;10268341;28;20052;-73
2023/08/06 14:32:21;;;;;;;7.72;5.72;;;;;;;;;;10195868;28;20729;-73
2023/08/06 14:37:17;;;;;;;6.45;5.85;;;;;;;;;;10246457;28;20067;-73
2023/08/06 14:42:14;;;;;;;6.93;6.05;;;;;;;;;;10195771;28;20054;-73
2023/08/06 14:47:10;;;;;;;6.95;6.22;;;;;;;;;;10222522;28;20073;-73
2023/08/06 14:52:06;;;;;;;6.85;5.97;;;;;;;;;;10195699;28;20100;-73
2023/08/06 14:57:02;;;;;;;6.32;5.43;;;;;;;;;;10260420;28;20158;-73
2023/08/06 15:01:59;;;;;;;7.72;5.50;;;;;;;;;;10275410;28;20060;-73
2023/08/06 15:06:55;;;;;;;5.97;4.97;;;;;;;;;;10262500;28;20052;-73
2023/08/06 15:11:52;;;;;;;7.00;6.28;;;;;;;;;;10228851;28;20046;-73
2023/08/06 15:16:50;;;;;;;6.65;5.70;;;;;;;;;;10256040;28;20162;-73
2023/08/06 15:21:47;;;;;;;6.50;5.88;;;;;;;;;;10247622;28;20471;-72
2023/08/06 15:26:43;;;;;;;6.55;5.22;;;;;;;;;;10234995;28;20053;-73
2023/08/06 15:31:40;;;;;;;6.50;5.70;;;;;;;;;;10241624;28;20081;-73
2023/08/06 15:36:36;;;;;;;10.38;6.57;;;;;;;;;;10251984;28;20525;-73
2023/08/06 15:41:33;;;;;;;7.57;5.80;;;;;;;;;;10217715;28;20057;-73
2023/08/06 15:46:29;;;;;;;7.05;5.70;;;;;;;;;;10249352;28;20071;-73
2023/08/06 15:51:25;;;;;;;6.45;5.72;;;;;;;;;;10198112;28;20053;-73
2023/08/06 15:56:22;;;;;;;7.40;6.20;;;;;;;;;;10238981;28;20124;-73
2023/08/06 16:01:18;;;;;;;7.72;5.68;;;;;;;;;;10193266;28;20078;-73
2023/08/06 16:06:14;;;;;;;8.60;5.60;;;;;;;;;;10230533;28;20071;-73
2023/08/06 16:11:11;;;;;;;7.07;5.95;;;;;;;;;;10233269;28;20115;-73
2023/08/06 16:16:07;;;;;;;6.80;6.15;;;;;;;;;;10207831;28;20053;-73
2023/08/06 16:21:03;;;;;;;9.48;5.38;;;;;;;;;;10191515;28;20058;-73
2023/08/06 16:26:00;;;;;;;6.30;5.70;;;;;;;;;;10240783;28;20537;-73
2023/08/06 16:30:56;;;;;;;6.82;5.82;;;;;;;;;;10273425;28;20793;-73
2023/08/06 16:35:55;;;;;;;5.82;5.22;;;;;;;;;;10247389;28;20473;-73
2023/08/06 16:40:53;;;;;;;8.77;6.00;;;;;;;;;;10197815;28;20054;-73
2023/08/06 16:45:51;;;;;;;7.05;6.35;;;;;;;;;;10220175;28;20547;-73
2023/08/06 16:50:47;;;;;;;6.63;5.43;;;;;;;;;;10199835;28;20116;-73
2023/08/06 16:55:44;;;;;;;7.63;6.30;;;;;;;;;;10213508;28;20149;-73
2023/08/06 17:00:40;;;;;;;6.25;5.35;;;;;;;;;;10199536;28;20128;-73
2023/08/06 17:05:46;;;;;;;11.60;5.97;;;;;;;;;;10205139;28;20046;-73
2023/08/06 17:10:43;;;;;;;7.78;6.35;;;;;;;;;;10182186;28;20050;-73
2023/08/06 17:15:41;;;;;;;7.75;5.78;;;;;;;;;;10241403;28;20052;-73
2023/08/06 17:20:40;;;;;;;6.63;5.82;;;;;;;;;;10279557;28;20637;-73
2023/08/06 17:25:36;;;;;;;6.88;6.28;;;;;;;;;;10255528;28;20081;-73
2023/08/06 17:30:33;;;;;;;9.27;6.18;;;;;;;;;;10277370;28;20049;-73
2023/08/06 17:35:29;;;;;;;6.70;6.00;;;;;;;;;;10238308;28;20053;-73
2023/08/06 17:40:27;;;;;;;7.03;6.13;;;;;;;;;;10263272;28;20050;-73
2023/08/06 17:45:23;;;;;;;7.43;6.07;;;;;;;;;;10235923;28;20104;-73
2023/08/06 17:50:20;;;;;;;6.90;5.90;;;;;;;;;;10227809;28;20516;-75
2023/08/06 17:55:16;;;;;;;9.90;6.32;;;;;;;;;;10217072;28;20057;-73
2023/08/06 18:00:13;;;;;;;7.88;6.38;;;;;;;;;;10199966;28;20053;-73
2023/08/06 18:05:14;;;;;;;8.55;6.47;;;;;;;;;;10222062;28;20054;-73
2023/08/06 18:10:11;;;;;;;6.87;6.27;;;;;;;;;;10197427;28;20078;-73
2023/08/06 18:15:07;;;;;;;7.35;6.07;;;;;;;;;;10216765;28;20053;-73
2023/08/06 18:20:04;;;;;;;7.10;6.50;;;;;;;;;;10237188;28;20488;-73
2023/08/06 18:25:04;;;;;;;8.15;6.95;;;;;;;;;;10252274;28;20552;-73
2023/08/06 18:30:01;;;;;;;8.43;6.05;;;;;;;;;;10277688;28;20530;-73
2023/08/06 18:34:57;;;;;;;6.50;5.90;;;;;;;;;;10266001;28;20064;-72
2023/08/06 18:40:00;;;;;;;6.47;5.88;;;;;;;;;;10221763;28;20053;-72
2023/08/06 18:44:57;;;;;;;7.82;6.00;;;;;;;;;;10226766;28;20049;-73
2023/08/06 18:49:54;;;;;;;9.95;6.47;;;;;;;;;;10275909;28;20404;-73
2023/08/06 18:54:54;;;;;;;8.57;6.38;;;;;;;;;;10228325;28;20053;-72
2023/08/06 18:59:51;;;;;;;8.68;6.82;;;;;;;;;;10217166;28;20115;-72
2023/08/06 19:04:48;;;;;;;7.85;6.43;;;;;;;;;;10217153;28;20511;-73
2023/08/06 19:09:47;;;;;;;12.82;8.18;;;;;;;;;;10251445;28;20181;-73
2023/08/06 19:14:44;;;;;;;7.28;6.35;;;;;;;;;;10195540;28;20057;-74
2023/08/06 19:19:43;;;;;;;7.55;6.57;;;;;;;;;;10270209;28;20045;-73
2023/08/06 19:24:40;;;;;;;10.35;7.78;;;;;;;;;;10229917;28;20057;-73
2023/08/06 19:29:36;;;;;;;8.35;6.80;;;;;;;;;;10260414;28;20062;-73
2023/08/06 19:34:33;;;;;;;8.25;6.55;;;;;;;;;;10218386;28;20053;-73
2023/08/06 19:39:29;;;;;;;9.60;7.00;;;;;;;;;;10255431;28;20507;-74
2023/08/06 19:44:26;;;;;;;11.82;7.93;;;;;;;;;;10215938;28;20056;-74
2023/08/06 19:49:22;;;;;;;10.57;8.13;;;;;;;;;;10244669;28;20128;-73
2023/08/06 19:54:21;;;;;;;9.65;7.82;;;;;;;;;;10214397;28;20049;-73
2023/08/06 19:59:19;;;;;;;9.20;7.57;;;;;;;;;;10219571;28;20050;-73
2023/08/06 20:04:16;;;;;;;11.65;8.90;;;;;;;;;;10213031;28;20045;-73
2023/08/06 20:09:12;;;;;;;14.65;8.63;;;;;;;;;;10242260;28;20061;-74
2023/08/06 20:14:09;;;;;;;12.10;8.82;;;;;;;;;;10242055;28;20057;-73
2023/08/06 20:19:05;;;;;;;16.45;10.45;;;;;;;;;;10199431;28;20235;-73
2023/08/06 20:24:02;;;;;;;12.00;9.00;;;;;;;;;;10214411;28;20534;-73
2023/08/06 20:29:00;;;;;;;10.88;7.93;;;;;;;;;;10280952;28;20052;-73
2023/08/06 20:33:59;;;;;;;8.43;6.95;;;;;;;;;;10266483;28;20049;-74
2023/08/06 20:38:56;;;;;;;8.40;6.97;;;;;;;;;;10280871;28;20045;-73
2023/08/06 20:43:52;;;;;;;7.85;7.07;;;;;;;;;;10263342;28;20094;-73
2023/08/06 20:48:49;;;;;;;7.18;6.55;;;;;;;;;;10280383;28;20049;-73
2023/08/06 20:53:45;;;;;;;10.60;6.80;;;;;;;;;;10227607;28;20053;-73
2023/08/06 20:58:41;;;;;;;7.10;6.13;;;;;;;;;;10343417;22;20024;-73
2023/08/06 21:03:38;;;;;;;8.65;6.45;;;;;;;;;;10225700;28;20499;-73
2023/08/06 21:08:35;;;;;;;8.13;6.18;;;;;;;;;;10246879;28;20412;-73
2023/08/06 21:13:32;;;;;;;9.52;6.32;;;;;;;;;;10207801;28;20053;-73
2023/08/06 21:18:32;;;;;;;6.95;6.30;;;;;;;;;;10210128;28;20104;-73
2023/08/06 21:23:29;;;;;;;7.38;6.05;;;;;;;;;;10205717;28;20118;-73
2023/08/06 21:28:27;;;;;;;6.38;5.78;;;;;;;;;;10225311;28;20111;-73
2023/08/06 21:33:27;;;;;;;11.15;6.55;;;;;;;;;;10241153;28;20202;-73
2023/08/06 21:38:27;;;;;;;6.10;5.50;;;;;;;;;;10201938;28;20057;-73
2023/08/06 21:43:23;;;;;;;7.80;6.15;;;;;;;;;;10203707;28;20521;-73
2023/08/06 21:48:19;;;;;;;6.22;5.63;;;;;;;;;;10278260;28;20099;-73
2023/08/06 21:53:16;;;;;;;6.18;5.18;;;;;;;;;;10262161;28;20053;-73
2023/08/06 21:58:15;;;;;;;6.68;6.07;;;;;;;;;;10278149;28;20045;-73
2023/08/06 22:03:11;;;;;;;8.73;6.28;;;;;;;;;;10257498;28;20049;-74
2023/08/06 22:08:08;;;;;;;8.43;5.95;;;;;;;;;;10277917;28;20057;-73
2023/08/06 22:13:04;;;;;;;7.18;5.97;;;;;;;;;;10235683;28;20566;-73
2023/08/06 22:18:01;;;;;;;6.40;5.80;;;;;;;;;;10277710;28;20462;-73
2023/08/06 22:22:58;;;;;;;7.75;6.38;;;;;;;;;;10251833;28;20432;-73
2023/08/06 22:27:54;;;;;;;7.00;5.57;;;;;;;;;;10276344;28;20523;-73
2023/08/06 22:32:51;;;;;;;7.25;6.00;;;;;;;;;;10209586;28;20061;-73
2023/08/06 22:37:48;;;;;;;6.82;6.10;;;;;;;;;;10264127;28;20532;-73
2023/08/06 22:42:44;;;;;;;7.00;5.53;;;;;;;;;;10178401;28;20088;-73
2023/08/06 22:47:41;;;;;;;6.10;5.55;;;;;;;;;;10240363;28;20054;-73
2023/08/06 22:52:38;;;;;;;6.72;6.07;;;;;;;;;;10195748;28;20508;-73
2023/08/06 22:57:34;;;;;;;6.63;5.78;;;;;;;;;;10242025;28;20057;-73
2023/08/06 23:02:31;;;;;;;6.75;5.70;;;;;;;;;;10234873;28;20053;-73
2023/08/06 23:07:27;;;;;;;7.00;6.03;;;;;;;;;;10217779;28;20060;-73
2023/08/06 23:12:24;;;;;;;6.70;6.05;;;;;;;;;;10194580;28;20057;-74
2023/08/06 23:17:20;;;;;;;7.03;6.32;;;;;;;;;;10264612;28;20561;-73
2023/08/06 23:22:16;;;;;;;8.80;5.93;;;;;;;;;;10273772;28;20048;-72
2023/08/06 23:27:12;;;;;;;6.18;5.60;;;;;;;;;;10267694;28;20045;-73
2023/08/06 23:32:09;;;;;;;7.00;6.05;;;;;;;;;;10249768;28;20058;-72
2023/08/06 23:37:05;;;;;;;7.75;5.35;;;;;;;;;;10259833;28;20530;-72
2023/08/06 23:42:01;;;;;;;6.35;5.75;;;;;;;;;;10247071;28;20065;-72
2023/08/06 23:46:58;;;;;;;7.00;5.18;;;;;;;;;;10257113;28;20052;-72
2023/08/06 23:51:54;;;;;;;7.20;5.30;;;;;;;;;;10221459;28;20050;-72
2023/08/06 23:56:51;;;;;;;7.45;6.20;;;;;;;;;;10254788;28;20053;-72
